sim
Sign-in with your pilot id or email,
or register
Callsign
Passwort

Schedule Details

Flight Number: OEO7389
Departure: Seattle Tacoma International Airport (KSEA) at 22:15
Arrival: Munich Airport (EDDM) at 08:40

Weather Information
Getting current METAR information for KSEA 250153Z 14010KT 10SM SCT036 BKN090 BKN160 16/13 A2997 RMK AO2 SLP154 T01610128
Getting current METAR information for EDDM 250220Z 23004KT 190V260 9999 -RA FEW008 SCT040 12/12 Q1002 TEMPO RA BKN008

Schedule Frequency

Route Map